sensor_id;sensor_type;location;lat;lon;timestamp;P1;durP1;ratioP1;P2;durP2;ratioP2
8260;SDS011;64115;50.170;8.242;2024-03-25T00:00:36;6.63;;;2.03;;
8260;SDS011;64115;50.170;8.242;2024-03-25T00:03:01;2.60;;;1.70;;
8260;SDS011;64115;50.170;8.242;2024-03-25T00:05:27;5.20;;;1.77;;
8260;SDS011;64115;50.170;8.242;2024-03-25T00:07:52;3.80;;;1.93;;
8260;SDS011;64115;50.170;8.242;2024-03-25T00:10:18;4.13;;;1.87;;
8260;SDS011;64115;50.170;8.242;2024-03-25T00:12:45;5.80;;;1.87;;
8260;SDS011;64115;50.170;8.242;2024-03-25T00:15:18;4.40;;;2.17;;
8260;SDS011;64115;50.170;8.242;2024-03-25T00:17:45;3.60;;;1.83;;
8260;SDS011;64115;50.170;8.242;2024-03-25T00:20:11;9.43;;;2.27;;
8260;SDS011;64115;50.170;8.242;2024-03-25T00:22:37;5.37;;;2.03;;
8260;SDS011;64115;50.170;8.242;2024-03-25T00:25:03;2.67;;;1.60;;
8260;SDS011;64115;50.170;8.242;2024-03-25T00:27:29;5.97;;;1.87;;
8260;SDS011;64115;50.170;8.242;2024-03-25T00:29:55;3.33;;;1.43;;
8260;SDS011;64115;50.170;8.242;2024-03-25T00:32:21;2.70;;;1.60;;
8260;SDS011;64115;50.170;8.242;2024-03-25T00:34:46;4.47;;;1.87;;
8260;SDS011;64115;50.170;8.242;2024-03-25T00:37:12;5.80;;;1.67;;
8260;SDS011;64115;50.170;8.242;2024-03-25T00:39:37;2.97;;;1.77;;
8260;SDS011;64115;50.170;8.242;2024-03-25T00:42:03;4.33;;;2.10;;
8260;SDS011;64115;50.170;8.242;2024-03-25T00:44:29;3.17;;;1.80;;
8260;SDS011;64115;50.170;8.242;2024-03-25T00:46:54;3.90;;;1.77;;
8260;SDS011;64115;50.170;8.242;2024-03-25T00:49:20;5.40;;;1.80;;
8260;SDS011;64115;50.170;8.242;2024-03-25T00:51:46;7.73;;;2.33;;
8260;SDS011;64115;50.170;8.242;2024-03-25T00:54:12;6.93;;;2.10;;
8260;SDS011;64115;50.170;8.242;2024-03-25T00:56:38;7.53;;;2.13;;
8260;SDS011;64115;50.170;8.242;2024-03-25T00:59:03;6.50;;;2.10;;
8260;SDS011;64115;50.170;8.242;2024-03-25T01:01:31;6.83;;;2.10;;
8260;SDS011;64115;50.170;8.242;2024-03-25T01:03:57;6.37;;;2.10;;
8260;SDS011;64115;50.170;8.242;2024-03-25T01:06:23;6.17;;;1.93;;
8260;SDS011;64115;50.170;8.242;2024-03-25T01:08:49;5.77;;;1.83;;
8260;SDS011;64115;50.170;8.242;2024-03-25T01:11:15;7.17;;;1.93;;
8260;SDS011;64115;50.170;8.242;2024-03-25T01:13:40;6.20;;;2.10;;
8260;SDS011;64115;50.170;8.242;2024-03-25T01:16:09;8.43;;;2.40;;
8260;SDS011;64115;50.170;8.242;2024-03-25T01:18:35;5.70;;;1.93;;
8260;SDS011;64115;50.170;8.242;2024-03-25T01:21:01;5.83;;;2.20;;
8260;SDS011;64115;50.170;8.242;2024-03-25T01:23:27;5.90;;;2.17;;
8260;SDS011;64115;50.170;8.242;2024-03-25T01:25:52;7.40;;;2.07;;
8260;SDS011;64115;50.170;8.242;2024-03-25T01:28:18;7.30;;;2.27;;
8260;SDS011;64115;50.170;8.242;2024-03-25T01:30:43;5.20;;;2.10;;
8260;SDS011;64115;50.170;8.242;2024-03-25T01:33:09;6.37;;;2.13;;
8260;SDS011;64115;50.170;8.242;2024-03-25T01:35:35;6.13;;;2.37;;
8260;SDS011;64115;50.170;8.242;2024-03-25T01:38:00;4.57;;;2.10;;
8260;SDS011;64115;50.170;8.242;2024-03-25T01:40:26;6.30;;;2.20;;
8260;SDS011;64115;50.170;8.242;2024-03-25T01:43:01;4.60;;;2.13;;
8260;SDS011;64115;50.170;8.242;2024-03-25T01:45:34;3.90;;;2.00;;
8260;SDS011;64115;50.170;8.242;2024-03-25T01:48:07;8.17;;;2.20;;
8260;SDS011;64115;50.170;8.242;2024-03-25T01:50:35;10.53;;;2.30;;
8260;SDS011;64115;50.170;8.242;2024-03-25T01:53:04;4.47;;;1.93;;
8260;SDS011;64115;50.170;8.242;2024-03-25T01:55:30;3.77;;;2.17;;
8260;SDS011;64115;50.170;8.242;2024-03-25T01:57:59;4.83;;;2.00;;
8260;SDS011;64115;50.170;8.242;2024-03-25T02:00:25;4.90;;;2.10;;
8260;SDS011;64115;50.170;8.242;2024-03-25T02:02:52;7.00;;;2.17;;
8260;SDS011;64115;50.170;8.242;2024-03-25T02:05:18;5.77;;;2.23;;
8260;SDS011;64115;50.170;8.242;2024-03-25T02:07:45;6.97;;;2.20;;
8260;SDS011;64115;50.170;8.242;2024-03-25T02:10:12;7.30;;;2.20;;
8260;SDS011;64115;50.170;8.242;2024-03-25T02:12:40;5.77;;;2.10;;
8260;SDS011;64115;50.170;8.242;2024-03-25T02:15:07;3.53;;;2.10;;
8260;SDS011;64115;50.170;8.242;2024-03-25T02:17:34;2.57;;;1.80;;
8260;SDS011;64115;50.170;8.242;2024-03-25T02:20:00;8.13;;;2.13;;
8260;SDS011;64115;50.170;8.242;2024-03-25T02:22:30;7.23;;;2.20;;
8260;SDS011;64115;50.170;8.242;2024-03-25T02:24:56;5.83;;;1.90;;
8260;SDS011;64115;50.170;8.242;2024-03-25T02:27:23;5.73;;;2.37;;
8260;SDS011;64115;50.170;8.242;2024-03-25T02:30:00;3.73;;;2.00;;
8260;SDS011;64115;50.170;8.242;2024-03-25T02:32:33;5.90;;;2.20;;
8260;SDS011;64115;50.170;8.242;2024-03-25T02:34:59;4.80;;;2.23;;
8260;SDS011;64115;50.170;8.242;2024-03-25T02:37:26;6.23;;;2.37;;
8260;SDS011;64115;50.170;8.242;2024-03-25T02:39:53;7.07;;;2.13;;
8260;SDS011;64115;50.170;8.242;2024-03-25T02:42:22;2.80;;;2.00;;
8260;SDS011;64115;50.170;8.242;2024-03-25T02:44:48;7.03;;;2.10;;
8260;SDS011;64115;50.170;8.242;2024-03-25T02:47:14;3.73;;;2.27;;
8260;SDS011;64115;50.170;8.242;2024-03-25T02:49:40;5.00;;;2.07;;
8260;SDS011;64115;50.170;8.242;2024-03-25T02:52:08;6.73;;;2.20;;
8260;SDS011;64115;50.170;8.242;2024-03-25T02:54:33;7.20;;;2.20;;
8260;SDS011;64115;50.170;8.242;2024-03-25T02:56:59;2.93;;;1.87;;
8260;SDS011;64115;50.170;8.242;2024-03-25T02:59:24;2.67;;;2.00;;
8260;SDS011;64115;50.170;8.242;2024-03-25T03:01:50;6.47;;;2.30;;
8260;SDS011;64115;50.170;8.242;2024-03-25T03:04:15;3.17;;;2.10;;
8260;SDS011;64115;50.170;8.242;2024-03-25T03:06:41;4.43;;;2.50;;
8260;SDS011;64115;50.170;8.242;2024-03-25T03:09:07;8.23;;;2.40;;
8260;SDS011;64115;50.170;8.242;2024-03-25T03:11:32;5.10;;;2.00;;
8260;SDS011;64115;50.170;8.242;2024-03-25T03:13:58;6.30;;;2.23;;
8260;SDS011;64115;50.170;8.242;2024-03-25T03:16:23;6.43;;;2.20;;
8260;SDS011;64115;50.170;8.242;2024-03-25T03:18:49;4.90;;;2.30;;
8260;SDS011;64115;50.170;8.242;2024-03-25T03:21:14;9.37;;;2.60;;
8260;SDS011;64115;50.170;8.242;2024-03-25T03:23:40;7.23;;;2.30;;
8260;SDS011;64115;50.170;8.242;2024-03-25T03:26:05;3.90;;;1.90;;
8260;SDS011;64115;50.170;8.242;2024-03-25T03:28:31;4.73;;;1.90;;
8260;SDS011;64115;50.170;8.242;2024-03-25T03:30:59;7.27;;;2.50;;
8260;SDS011;64115;50.170;8.242;2024-03-25T03:33:25;7.17;;;2.40;;
8260;SDS011;64115;50.170;8.242;2024-03-25T03:35:51;7.23;;;2.17;;
8260;SDS011;64115;50.170;8.242;2024-03-25T03:38:17;4.30;;;2.10;;
8260;SDS011;64115;50.170;8.242;2024-03-25T03:40:42;8.10;;;2.17;;
8260;SDS011;64115;50.170;8.242;2024-03-25T03:43:20;6.97;;;2.20;;
8260;SDS011;64115;50.170;8.242;2024-03-25T03:45:46;4.17;;;1.93;;
8260;SDS011;64115;50.170;8.242;2024-03-25T03:48:11;9.87;;;2.60;;
8260;SDS011;64115;50.170;8.242;2024-03-25T03:50:37;6.73;;;2.50;;
8260;SDS011;64115;50.170;8.242;2024-03-25T03:53:02;6.20;;;2.93;;
8260;SDS011;64115;50.170;8.242;2024-03-25T03:55:29;6.67;;;2.20;;
8260;SDS011;64115;50.170;8.242;2024-03-25T03:57:54;6.57;;;2.20;;
8260;SDS011;64115;50.170;8.242;2024-03-25T04:00:20;7.97;;;2.53;;
8260;SDS011;64115;50.170;8.242;2024-03-25T04:02:45;6.93;;;2.57;;
8260;SDS011;64115;50.170;8.242;2024-03-25T04:05:11;7.87;;;2.33;;
8260;SDS011;64115;50.170;8.242;2024-03-25T04:07:37;5.67;;;2.40;;
8260;SDS011;64115;50.170;8.242;2024-03-25T04:10:03;7.07;;;2.37;;
8260;SDS011;64115;50.170;8.242;2024-03-25T04:12:29;6.77;;;2.30;;
8260;SDS011;64115;50.170;8.242;2024-03-25T04:14:55;9.50;;;2.35;;
8260;SDS011;64115;50.170;8.242;2024-03-25T04:17:21;7.43;;;2.30;;
8260;SDS011;64115;50.170;8.242;2024-03-25T04:19:50;2.90;;;1.70;;
8260;SDS011;64115;50.170;8.242;2024-03-25T04:22:16;7.17;;;2.10;;
8260;SDS011;64115;50.170;8.242;2024-03-25T04:24:45;6.77;;;2.53;;
8260;SDS011;64115;50.170;8.242;2024-03-25T04:27:11;5.60;;;2.10;;
8260;SDS011;64115;50.170;8.242;2024-03-25T04:29:37;5.63;;;2.00;;
8260;SDS011;64115;50.170;8.242;2024-03-25T04:32:03;6.23;;;2.23;;
8260;SDS011;64115;50.170;8.242;2024-03-25T04:34:29;4.77;;;2.00;;
8260;SDS011;64115;50.170;8.242;2024-03-25T04:36:55;8.17;;;2.10;;
8260;SDS011;64115;50.170;8.242;2024-03-25T04:39:21;7.37;;;2.47;;
8260;SDS011;64115;50.170;8.242;2024-03-25T04:41:48;6.70;;;2.20;;
8260;SDS011;64115;50.170;8.242;2024-03-25T04:44:13;5.43;;;2.20;;
8260;SDS011;64115;50.170;8.242;2024-03-25T04:46:39;5.97;;;2.27;;
8260;SDS011;64115;50.170;8.242;2024-03-25T04:49:05;7.67;;;2.27;;
8260;SDS011;64115;50.170;8.242;2024-03-25T04:51:31;4.40;;;2.17;;
8260;SDS011;64115;50.170;8.242;2024-03-25T04:53:56;8.13;;;2.63;;
8260;SDS011;64115;50.170;8.242;2024-03-25T04:56:22;6.43;;;2.57;;
8260;SDS011;64115;50.170;8.242;2024-03-25T04:58:48;7.83;;;2.57;;
8260;SDS011;64115;50.170;8.242;2024-03-25T05:01:13;7.97;;;2.50;;
8260;SDS011;64115;50.170;8.242;2024-03-25T05:03:39;7.13;;;2.33;;
8260;SDS011;64115;50.170;8.242;2024-03-25T05:06:05;6.93;;;2.90;;
8260;SDS011;64115;50.170;8.242;2024-03-25T05:08:34;6.93;;;2.33;;
8260;SDS011;64115;50.170;8.242;2024-03-25T05:10:59;5.53;;;2.37;;
8260;SDS011;64115;50.170;8.242;2024-03-25T05:13:25;6.37;;;2.50;;
8260;SDS011;64115;50.170;8.242;2024-03-25T05:15:51;7.60;;;2.60;;
8260;SDS011;64115;50.170;8.242;2024-03-25T05:18:17;8.30;;;2.60;;
8260;SDS011;64115;50.170;8.242;2024-03-25T05:20:43;6.13;;;2.53;;
8260;SDS011;64115;50.170;8.242;2024-03-25T05:23:09;7.37;;;2.53;;
8260;SDS011;64115;50.170;8.242;2024-03-25T05:25:35;6.80;;;2.43;;
8260;SDS011;64115;50.170;8.242;2024-03-25T05:28:01;7.37;;;3.03;;
8260;SDS011;64115;50.170;8.242;2024-03-25T05:30:27;8.50;;;2.53;;
8260;SDS011;64115;50.170;8.242;2024-03-25T05:32:53;6.37;;;2.60;;
8260;SDS011;64115;50.170;8.242;2024-03-25T05:35:18;11.23;;;2.97;;
8260;SDS011;64115;50.170;8.242;2024-03-25T05:37:44;7.93;;;2.70;;
8260;SDS011;64115;50.170;8.242;2024-03-25T05:40:10;6.90;;;2.80;;
8260;SDS011;64115;50.170;8.242;2024-03-25T05:42:36;6.23;;;2.23;;
8260;SDS011;64115;50.170;8.242;2024-03-25T05:45:02;7.33;;;2.80;;
8260;SDS011;64115;50.170;8.242;2024-03-25T05:47:28;6.70;;;2.50;;
8260;SDS011;64115;50.170;8.242;2024-03-25T05:49:54;5.23;;;2.27;;
8260;SDS011;64115;50.170;8.242;2024-03-25T05:52:19;7.30;;;2.60;;
8260;SDS011;64115;50.170;8.242;2024-03-25T05:54:45;7.27;;;3.13;;
8260;SDS011;64115;50.170;8.242;2024-03-25T05:57:11;8.07;;;2.60;;
8260;SDS011;64115;50.170;8.242;2024-03-25T05:59:36;6.90;;;2.50;;
8260;SDS011;64115;50.170;8.242;2024-03-25T06:02:02;6.27;;;2.47;;
8260;SDS011;64115;50.170;8.242;2024-03-25T06:04:27;5.40;;;2.30;;
8260;SDS011;64115;50.170;8.242;2024-03-25T06:06:53;10.90;;;2.83;;
8260;SDS011;64115;50.170;8.242;2024-03-25T06:09:18;7.43;;;2.60;;
8260;SDS011;64115;50.170;8.242;2024-03-25T06:11:44;6.20;;;2.23;;
8260;SDS011;64115;50.170;8.242;2024-03-25T06:14:09;6.10;;;2.10;;
8260;SDS011;64115;50.170;8.242;2024-03-25T06:16:35;5.20;;;2.20;;
8260;SDS011;64115;50.170;8.242;2024-03-25T06:19:00;5.83;;;2.20;;
8260;SDS011;64115;50.170;8.242;2024-03-25T06:21:26;8.00;;;2.40;;
8260;SDS011;64115;50.170;8.242;2024-03-25T06:23:53;6.60;;;2.40;;
8260;SDS011;64115;50.170;8.242;2024-03-25T06:26:19;4.57;;;1.97;;
8260;SDS011;64115;50.170;8.242;2024-03-25T06:28:45;14.17;;;2.60;;
8260;SDS011;64115;50.170;8.242;2024-03-25T06:31:10;6.53;;;2.20;;
8260;SDS011;64115;50.170;8.242;2024-03-25T06:33:54;7.43;;;2.33;;
8260;SDS011;64115;50.170;8.242;2024-03-25T06:36:38;5.03;;;2.40;;
8260;SDS011;64115;50.170;8.242;2024-03-25T06:39:04;8.13;;;2.50;;
8260;SDS011;64115;50.170;8.242;2024-03-25T06:41:29;7.87;;;2.10;;
8260;SDS011;64115;50.170;8.242;2024-03-25T06:43:55;18.00;;;3.20;;
8260;SDS011;64115;50.170;8.242;2024-03-25T06:46:21;7.57;;;2.43;;
8260;SDS011;64115;50.170;8.242;2024-03-25T06:48:46;8.17;;;2.47;;
8260;SDS011;64115;50.170;8.242;2024-03-25T06:51:12;6.87;;;2.50;;
8260;SDS011;64115;50.170;8.242;2024-03-25T06:53:37;4.57;;;2.07;;
8260;SDS011;64115;50.170;8.242;2024-03-25T06:56:03;8.17;;;2.27;;
8260;SDS011;64115;50.170;8.242;2024-03-25T06:58:28;4.70;;;1.97;;
8260;SDS011;64115;50.170;8.242;2024-03-25T07:00:55;6.90;;;2.00;;
8260;SDS011;64115;50.170;8.242;2024-03-25T07:03:22;7.53;;;2.00;;
8260;SDS011;64115;50.170;8.242;2024-03-25T07:05:49;8.47;;;2.23;;
8260;SDS011;64115;50.170;8.242;2024-03-25T07:08:24;7.67;;;3.03;;
8260;SDS011;64115;50.170;8.242;2024-03-25T07:10:50;8.07;;;2.23;;
8260;SDS011;64115;50.170;8.242;2024-03-25T07:13:15;8.73;;;2.53;;
8260;SDS011;64115;50.170;8.242;2024-03-25T07:15:42;4.97;;;2.30;;
8260;SDS011;64115;50.170;8.242;2024-03-25T07:18:08;6.00;;;1.93;;
8260;SDS011;64115;50.170;8.242;2024-03-25T07:20:36;8.83;;;4.03;;
8260;SDS011;64115;50.170;8.242;2024-03-25T07:23:02;8.23;;;2.17;;
8260;SDS011;64115;50.170;8.242;2024-03-25T07:25:28;9.80;;;2.67;;
8260;SDS011;64115;50.170;8.242;2024-03-25T07:27:54;9.63;;;2.50;;
8260;SDS011;64115;50.170;8.242;2024-03-25T07:30:20;5.07;;;1.90;;
8260;SDS011;64115;50.170;8.242;2024-03-25T07:32:52;6.33;;;2.17;;
8260;SDS011;64115;50.170;8.242;2024-03-25T07:35:18;9.37;;;2.50;;
8260;SDS011;64115;50.170;8.242;2024-03-25T07:37:44;8.67;;;2.40;;
8260;SDS011;64115;50.170;8.242;2024-03-25T07:40:10;8.03;;;2.43;;
8260;SDS011;64115;50.170;8.242;2024-03-25T07:42:36;8.20;;;2.47;;
8260;SDS011;64115;50.170;8.242;2024-03-25T07:45:02;5.50;;;1.90;;
8260;SDS011;64115;50.170;8.242;2024-03-25T07:47:30;7.97;;;2.67;;
8260;SDS011;64115;50.170;8.242;2024-03-25T07:49:55;7.30;;;2.27;;
8260;SDS011;64115;50.170;8.242;2024-03-25T07:52:21;5.73;;;1.87;;
8260;SDS011;64115;50.170;8.242;2024-03-25T07:54:46;5.10;;;1.97;;
8260;SDS011;64115;50.170;8.242;2024-03-25T07:57:12;7.60;;;2.03;;
8260;SDS011;64115;50.170;8.242;2024-03-25T07:59:38;6.57;;;2.07;;
8260;SDS011;64115;50.170;8.242;2024-03-25T08:02:03;11.27;;;2.73;;
8260;SDS011;64115;50.170;8.242;2024-03-25T08:04:29;7.40;;;1.93;;
8260;SDS011;64115;50.170;8.242;2024-03-25T08:06:54;8.67;;;2.07;;
8260;SDS011;64115;50.170;8.242;2024-03-25T08:09:20;7.07;;;2.00;;
8260;SDS011;64115;50.170;8.242;2024-03-25T08:11:45;6.23;;;2.03;;
8260;SDS011;64115;50.170;8.242;2024-03-25T08:14:11;8.07;;;1.97;;
8260;SDS011;64115;50.170;8.242;2024-03-25T08:16:37;7.63;;;2.20;;
8260;SDS011;64115;50.170;8.242;2024-03-25T08:19:03;6.10;;;1.97;;
8260;SDS011;64115;50.170;8.242;2024-03-25T08:21:29;8.33;;;1.97;;
8260;SDS011;64115;50.170;8.242;2024-03-25T08:23:54;7.40;;;2.07;;
8260;SDS011;64115;50.170;8.242;2024-03-25T08:26:20;11.40;;;1.90;;
8260;SDS011;64115;50.170;8.242;2024-03-25T08:28:45;8.57;;;1.93;;
8260;SDS011;64115;50.170;8.242;2024-03-25T08:31:11;6.17;;;2.00;;
8260;SDS011;64115;50.170;8.242;2024-03-25T08:33:36;6.63;;;2.00;;
8260;SDS011;64115;50.170;8.242;2024-03-25T08:36:02;5.97;;;1.80;;
8260;SDS011;64115;50.170;8.242;2024-03-25T08:38:28;4.60;;;1.80;;
8260;SDS011;64115;50.170;8.242;2024-03-25T08:40:54;8.30;;;1.57;;
8260;SDS011;64115;50.170;8.242;2024-03-25T08:43:19;3.40;;;1.33;;
8260;SDS011;64115;50.170;8.242;2024-03-25T08:45:45;5.17;;;1.90;;
8260;SDS011;64115;50.170;8.242;2024-03-25T08:48:11;3.33;;;1.67;;
8260;SDS011;64115;50.170;8.242;2024-03-25T08:50:37;5.03;;;1.90;;
8260;SDS011;64115;50.170;8.242;2024-03-25T08:53:03;5.50;;;2.33;;
8260;SDS011;64115;50.170;8.242;2024-03-25T08:55:29;4.97;;;1.67;;
8260;SDS011;64115;50.170;8.242;2024-03-25T08:57:55;6.23;;;1.50;;
8260;SDS011;64115;50.170;8.242;2024-03-25T09:00:23;6.23;;;1.50;;
8260;SDS011;64115;50.170;8.242;2024-03-25T09:02:52;9.43;;;2.00;;
8260;SDS011;64115;50.170;8.242;2024-03-25T09:05:21;5.07;;;1.90;;
8260;SDS011;64115;50.170;8.242;2024-03-25T09:07:49;6.17;;;1.80;;
8260;SDS011;64115;50.170;8.242;2024-03-25T09:10:17;5.43;;;1.93;;
8260;SDS011;64115;50.170;8.242;2024-03-25T09:13:04;7.13;;;1.67;;
8260;SDS011;64115;50.170;8.242;2024-03-25T09:15:30;4.07;;;1.43;;
8260;SDS011;64115;50.170;8.242;2024-03-25T09:17:55;4.93;;;1.50;;
8260;SDS011;64115;50.170;8.242;2024-03-25T09:20:21;6.33;;;1.67;;
8260;SDS011;64115;50.170;8.242;2024-03-25T09:22:47;5.10;;;1.57;;
8260;SDS011;64115;50.170;8.242;2024-03-25T09:25:16;4.90;;;1.93;;
8260;SDS011;64115;50.170;8.242;2024-03-25T09:27:47;5.17;;;1.60;;
8260;SDS011;64115;50.170;8.242;2024-03-25T09:30:14;5.13;;;1.67;;
8260;SDS011;64115;50.170;8.242;2024-03-25T09:32:40;5.27;;;1.60;;
8260;SDS011;64115;50.170;8.242;2024-03-25T09:35:06;5.53;;;1.60;;
8260;SDS011;64115;50.170;8.242;2024-03-25T09:37:32;4.17;;;1.60;;
8260;SDS011;64115;50.170;8.242;2024-03-25T09:39:58;4.47;;;1.53;;
8260;SDS011;64115;50.170;8.242;2024-03-25T09:45:16;3.87;;;1.17;;
8260;SDS011;64115;50.170;8.242;2024-03-25T09:47:46;6.53;;;1.70;;
8260;SDS011;64115;50.170;8.242;2024-03-25T09:50:12;9.53;;;2.10;;
8260;SDS011;64115;50.170;8.242;2024-03-25T09:52:44;3.73;;;1.70;;
8260;SDS011;64115;50.170;8.242;2024-03-25T09:55:16;4.70;;;1.47;;
8260;SDS011;64115;50.170;8.242;2024-03-25T09:57:42;4.00;;;1.53;;
8260;SDS011;64115;50.170;8.242;2024-03-25T10:00:09;2.37;;;1.20;;
8260;SDS011;64115;50.170;8.242;2024-03-25T10:02:36;4.47;;;1.23;;
8260;SDS011;64115;50.170;8.242;2024-03-25T10:05:03;2.30;;;1.03;;
8260;SDS011;64115;50.170;8.242;2024-03-25T10:07:33;4.03;;;1.60;;
8260;SDS011;64115;50.170;8.242;2024-03-25T10:09:59;2.90;;;1.17;;
8260;SDS011;64115;50.170;8.242;2024-03-25T10:12:28;2.50;;;1.30;;
8260;SDS011;64115;50.170;8.242;2024-03-25T10:14:53;3.03;;;1.30;;
8260;SDS011;64115;50.170;8.242;2024-03-25T10:17:19;3.20;;;1.20;;
8260;SDS011;64115;50.170;8.242;2024-03-25T10:19:44;4.03;;;1.50;;
8260;SDS011;64115;50.170;8.242;2024-03-25T10:22:10;9.30;;;1.40;;
8260;SDS011;64115;50.170;8.242;2024-03-25T10:27:05;2.63;;;1.03;;
8260;SDS011;64115;50.170;8.242;2024-03-25T10:29:31;2.87;;;1.20;;
8260;SDS011;64115;50.170;8.242;2024-03-25T10:32:00;4.13;;;1.40;;
8260;SDS011;64115;50.170;8.242;2024-03-25T10:34:26;2.40;;;1.50;;
8260;SDS011;64115;50.170;8.242;2024-03-25T10:36:58;7.57;;;1.20;;
8260;SDS011;64115;50.170;8.242;2024-03-25T10:39:30;3.10;;;1.30;;
8260;SDS011;64115;50.170;8.242;2024-03-25T10:41:57;5.00;;;1.50;;
8260;SDS011;64115;50.170;8.242;2024-03-25T10:44:25;2.47;;;1.40;;
8260;SDS011;64115;50.170;8.242;2024-03-25T10:47:01;3.20;;;1.40;;
8260;SDS011;64115;50.170;8.242;2024-03-25T10:49:38;3.73;;;1.20;;
8260;SDS011;64115;50.170;8.242;2024-03-25T10:52:14;1.97;;;1.43;;
8260;SDS011;64115;50.170;8.242;2024-03-25T10:54:41;1.90;;;1.10;;
8260;SDS011;64115;50.170;8.242;2024-03-25T10:57:09;1.13;;;0.93;;
8260;SDS011;64115;50.170;8.242;2024-03-25T10:59:35;2.03;;;1.07;;
8260;SDS011;64115;50.170;8.242;2024-03-25T11:02:06;2.03;;;1.13;;
8260;SDS011;64115;50.170;8.242;2024-03-25T11:04:32;4.60;;;1.27;;
8260;SDS011;64115;50.170;8.242;2024-03-25T11:09:33;3.00;;;1.27;;
8260;SDS011;64115;50.170;8.242;2024-03-25T11:11:59;3.37;;;1.30;;
8260;SDS011;64115;50.170;8.242;2024-03-25T11:14:25;4.50;;;1.30;;
8260;SDS011;64115;50.170;8.242;2024-03-25T11:16:54;2.03;;;1.20;;
8260;SDS011;64115;50.170;8.242;2024-03-25T11:19:20;3.37;;;1.13;;
8260;SDS011;64115;50.170;8.242;2024-03-25T11:21:50;4.37;;;1.53;;
8260;SDS011;64115;50.170;8.242;2024-03-25T11:24:15;2.23;;;1.20;;
8260;SDS011;64115;50.170;8.242;2024-03-25T11:26:51;2.33;;;1.30;;
8260;SDS011;64115;50.170;8.242;2024-03-25T11:29:18;2.40;;;0.90;;
8260;SDS011;64115;50.170;8.242;2024-03-25T11:31:43;2.93;;;1.10;;
8260;SDS011;64115;50.170;8.242;2024-03-25T11:34:10;3.10;;;1.13;;
8260;SDS011;64115;50.170;8.242;2024-03-25T11:36:36;4.30;;;1.40;;
8260;SDS011;64115;50.170;8.242;2024-03-25T11:39:01;3.57;;;1.50;;
8260;SDS011;64115;50.170;8.242;2024-03-25T11:41:34;2.60;;;1.03;;
8260;SDS011;64115;50.170;8.242;2024-03-25T11:44:04;2.03;;;1.00;;
8260;SDS011;64115;50.170;8.242;2024-03-25T11:46:29;1.70;;;1.20;;
8260;SDS011;64115;50.170;8.242;2024-03-25T11:48:55;3.10;;;1.10;;
8260;SDS011;64115;50.170;8.242;2024-03-25T11:51:21;2.17;;;1.07;;
8260;SDS011;64115;50.170;8.242;2024-03-25T11:53:47;1.53;;;1.10;;
8260;SDS011;64115;50.170;8.242;2024-03-25T11:56:12;2.00;;;1.17;;
8260;SDS011;64115;50.170;8.242;2024-03-25T11:58:39;1.77;;;1.23;;
8260;SDS011;64115;50.170;8.242;2024-03-25T12:01:04;3.33;;;1.50;;
8260;SDS011;64115;50.170;8.242;2024-03-25T12:03:30;2.40;;;1.10;;
8260;SDS011;64115;50.170;8.242;2024-03-25T12:05:56;1.80;;;1.00;;
8260;SDS011;64115;50.170;8.242;2024-03-25T12:08:22;2.93;;;1.30;;
8260;SDS011;64115;50.170;8.242;2024-03-25T12:10:52;4.73;;;1.50;;
8260;SDS011;64115;50.170;8.242;2024-03-25T12:13:40;2.27;;;1.00;;
8260;SDS011;64115;50.170;8.242;2024-03-25T12:16:07;3.13;;;1.10;;
8260;SDS011;64115;50.170;8.242;2024-03-25T12:18:33;2.20;;;1.30;;
8260;SDS011;64115;50.170;8.242;2024-03-25T12:21:00;1.60;;;1.07;;
8260;SDS011;64115;50.170;8.242;2024-03-25T12:23:31;2.73;;;1.03;;
8260;SDS011;64115;50.170;8.242;2024-03-25T12:26:01;2.93;;;1.00;;
8260;SDS011;64115;50.170;8.242;2024-03-25T12:28:30;3.20;;;0.90;;
8260;SDS011;64115;50.170;8.242;2024-03-25T12:30:56;2.60;;;1.20;;
8260;SDS011;64115;50.170;8.242;2024-03-25T12:33:22;1.50;;;0.97;;
8260;SDS011;64115;50.170;8.242;2024-03-25T12:35:48;2.23;;;0.97;;
8260;SDS011;64115;50.170;8.242;2024-03-25T12:38:22;1.83;;;0.93;;
8260;SDS011;64115;50.170;8.242;2024-03-25T12:40:51;1.53;;;1.10;;
8260;SDS011;64115;50.170;8.242;2024-03-25T12:43:28;2.17;;;1.10;;
8260;SDS011;64115;50.170;8.242;2024-03-25T12:45:57;2.13;;;1.10;;
8260;SDS011;64115;50.170;8.242;2024-03-25T12:48:22;1.13;;;0.90;;
8260;SDS011;64115;50.170;8.242;2024-03-25T12:50:48;1.50;;;0.90;;
8260;SDS011;64115;50.170;8.242;2024-03-25T12:53:16;1.77;;;1.07;;
8260;SDS011;64115;50.170;8.242;2024-03-25T12:55:42;1.20;;;0.80;;
8260;SDS011;64115;50.170;8.242;2024-03-25T12:58:08;1.90;;;1.30;;
8260;SDS011;64115;50.170;8.242;2024-03-25T13:00:34;1.20;;;0.97;;
8260;SDS011;64115;50.170;8.242;2024-03-25T13:02:59;1.63;;;1.47;;
8260;SDS011;64115;50.170;8.242;2024-03-25T13:05:27;4.07;;;1.50;;
8260;SDS011;64115;50.170;8.242;2024-03-25T13:07:53;2.93;;;1.20;;
8260;SDS011;64115;50.170;8.242;2024-03-25T13:10:19;2.73;;;1.27;;
8260;SDS011;64115;50.170;8.242;2024-03-25T13:12:45;2.77;;;1.53;;
8260;SDS011;64115;50.170;8.242;2024-03-25T13:15:11;1.43;;;0.90;;
8260;SDS011;64115;50.170;8.242;2024-03-25T13:17:36;4.00;;;1.70;;
8260;SDS011;64115;50.170;8.242;2024-03-25T13:20:02;2.80;;;1.40;;
8260;SDS011;64115;50.170;8.242;2024-03-25T13:22:29;3.90;;;1.43;;
8260;SDS011;64115;50.170;8.242;2024-03-25T13:24:57;2.20;;;1.33;;
8260;SDS011;64115;50.170;8.242;2024-03-25T13:27:23;4.13;;;1.30;;
8260;SDS011;64115;50.170;8.242;2024-03-25T13:29:49;2.57;;;1.37;;
8260;SDS011;64115;50.170;8.242;2024-03-25T13:32:17;3.27;;;1.30;;
8260;SDS011;64115;50.170;8.242;2024-03-25T13:34:42;2.57;;;1.00;;
8260;SDS011;64115;50.170;8.242;2024-03-25T13:37:08;3.27;;;1.23;;
8260;SDS011;64115;50.170;8.242;2024-03-25T13:39:33;1.93;;;1.30;;
8260;SDS011;64115;50.170;8.242;2024-03-25T13:41:59;2.07;;;1.40;;
8260;SDS011;64115;50.170;8.242;2024-03-25T13:44:24;1.60;;;1.20;;
8260;SDS011;64115;50.170;8.242;2024-03-25T13:46:50;3.07;;;1.30;;
8260;SDS011;64115;50.170;8.242;2024-03-25T13:49:15;2.30;;;1.43;;
8260;SDS011;64115;50.170;8.242;2024-03-25T13:51:43;2.47;;;1.30;;
8260;SDS011;64115;50.170;8.242;2024-03-25T13:54:09;4.13;;;1.40;;
8260;SDS011;64115;50.170;8.242;2024-03-25T13:56:34;4.03;;;1.80;;
8260;SDS011;64115;50.170;8.242;2024-03-25T13:59:00;1.70;;;1.60;;
8260;SDS011;64115;50.170;8.242;2024-03-25T14:01:25;4.57;;;1.70;;
8260;SDS011;64115;50.170;8.242;2024-03-25T14:03:51;4.40;;;1.60;;
8260;SDS011;64115;50.170;8.242;2024-03-25T14:06:17;3.17;;;1.60;;
8260;SDS011;64115;50.170;8.242;2024-03-25T14:08:42;2.10;;;1.90;;
8260;SDS011;64115;50.170;8.242;2024-03-25T14:11:08;2.57;;;1.67;;
8260;SDS011;64115;50.170;8.242;2024-03-25T14:13:34;4.33;;;1.60;;
8260;SDS011;64115;50.170;8.242;2024-03-25T14:16:00;1.77;;;1.30;;
8260;SDS011;64115;50.170;8.242;2024-03-25T14:18:25;7.07;;;2.13;;
8260;SDS011;64115;50.170;8.242;2024-03-25T14:20:52;3.37;;;1.40;;
8260;SDS011;64115;50.170;8.242;2024-03-25T14:23:17;3.77;;;1.77;;
8260;SDS011;64115;50.170;8.242;2024-03-25T14:25:43;5.50;;;1.60;;
8260;SDS011;64115;50.170;8.242;2024-03-25T14:28:08;2.97;;;1.53;;
8260;SDS011;64115;50.170;8.242;2024-03-25T14:30:35;2.67;;;1.63;;
8260;SDS011;64115;50.170;8.242;2024-03-25T14:33:00;1.53;;;1.30;;
8260;SDS011;64115;50.170;8.242;2024-03-25T14:35:26;3.40;;;1.77;;
8260;SDS011;64115;50.170;8.242;2024-03-25T14:37:51;5.00;;;1.70;;
8260;SDS011;64115;50.170;8.242;2024-03-25T14:40:17;3.47;;;1.43;;
8260;SDS011;64115;50.170;8.242;2024-03-25T14:42:43;2.73;;;1.50;;
8260;SDS011;64115;50.170;8.242;2024-03-25T14:45:08;5.97;;;1.70;;
8260;SDS011;64115;50.170;8.242;2024-03-25T14:47:34;2.37;;;1.40;;
8260;SDS011;64115;50.170;8.242;2024-03-25T14:50:00;1.67;;;1.57;;
8260;SDS011;64115;50.170;8.242;2024-03-25T14:52:25;1.93;;;1.40;;
8260;SDS011;64115;50.170;8.242;2024-03-25T14:54:51;2.90;;;1.50;;
8260;SDS011;64115;50.170;8.242;2024-03-25T14:57:16;3.57;;;1.50;;
8260;SDS011;64115;50.170;8.242;2024-03-25T14:59:42;2.47;;;1.47;;
8260;SDS011;64115;50.170;8.242;2024-03-25T15:02:08;2.87;;;1.23;;
8260;SDS011;64115;50.170;8.242;2024-03-25T15:04:37;1.30;;;1.03;;